Impacts METAR Board INFO
IDs:

KPIT - Pittsburgh Intl, PA, US

Updated at: 1243 UTC 18 Dec 2017
Potential Impact None Slight Moderate High
Time18/00Z 18/01Z 18/02Z 18/03Z 18/04Z 18/05Z 18/06Z 18/07Z 18/08Z 18/09Z 18/10Z 18/11Z 18/12Z
VIS8 9 9 10 10 10 10 10 10 10 10 10 10
CIG40 60 65 70 70 65 65 70 41 -- 50 45 44
CoverOVCOVCOVCOVCOVCOVCOVCOVCOVCFEWOVCOVCOVC
FltCatVFRVFRVFRVFRVFRVFRVFRVFRVFRVFRVFRVFRVFR
WX--------------------------
WDir170170170021002202001901900210220
WSpd4 4 5 0 5 0 5 3 3 3 0 6 7
WGst-- -- -- -- -- -- -- -- -- -- -- -- --
Raw hourly METARs
KPIT 172351Z 17004KT 8SM BKN040 OVC055 03/02 A3010 RMK AO2 RAE35 SLP211 P0001 60007 T00280022 10056 20028 58009
KPIT 180051Z 17004KT 9SM OVC060 03/02 A3010 RMK AO2 SLP210 T00330017
KPIT 180151Z 17005KT 9SM OVC065 03/02 A3009 RMK AO2 SLP208 T00330017
KPIT 180251Z 00000KT 10SM OVC070 03/01 A3009 RMK AO2 SLP205 T00330011 58006
KPIT 180351Z 21005KT 10SM OVC070 04/01 A3009 RMK AO2 SLP206 T00390006
KPIT 180451Z 00000KT 10SM FEW042 OVC065 04/01 A3009 RMK AO2 SLP205 T00390006 400560006
KPIT 180551Z 22005KT 10SM OVC065 04/00 A3008 RMK AO2 SLP201 T00440000 10044 20028 58002
KPIT 180651Z 20003KT 10SM OVC070 04/00 A3006 RMK AO2 SLP194 T00390000
KPIT 180751Z 19003KT 10SM OVC041 03/00 A3006 RMK AO2 SLP196 T00330000
KPIT 180851Z 19003KT 10SM FEW041 03/M01 A3006 RMK AO2 SLP194 T00281006 56006
KPIT 180951Z 00000KT 10SM OVC050 03/00 A3005 RMK AO2 SLP193 T00330000
KPIT 181051Z 21006KT 10SM OVC045 03/01 A3005 RMK AO2 SLP193 T00330006
KPIT 181151Z 22007KT 10SM OVC044 04/02 A3006 RMK AO2 SLP194 70007 T00440017 10044 20022 55002